Terminal Aerodrome Forecast
Issued by NWS

Home | Current Version | Previous Version | Text Only | Print | Product List | Glossary On
Versions: 1 2 3 4 5 6 7 8 9 10 11 12
000
FTUS45 KTFX 251700 RRA
TAFLWT
TAF
KLWT 251747Z 2518/2618 12008KT P6SM SKC
     FM260300 21010KT P6SM SCT150
     FM261500 25015KT P6SM BKN120=

USA.gov is the U.S. government's official web portal to all federal, state and local government web resources and services.